createdAt,value
2022-11-28T00:01:30.471Z,82.17
2022-11-28T00:03:57.899Z,82.36
2022-11-28T00:06:26.323Z,82.27
2022-11-28T00:08:54.041Z,82.34
2022-11-28T00:11:21.166Z,82.31
2022-11-28T00:13:48.157Z,81.88
2022-11-28T00:16:21.447Z,82.22
2022-11-28T00:18:54.517Z,81.61
2022-11-28T00:21:22.007Z,81.71
2022-11-28T00:23:49.433Z,82.15
2022-11-28T00:26:25.412Z,81.96
2022-11-28T00:28:52.428Z,82.62
2022-11-28T00:31:24.190Z,82.13
2022-11-28T00:33:51.422Z,81.92
2022-11-28T00:36:19.993Z,82.22
2022-11-28T00:38:47.478Z,81.96
2022-11-28T00:41:22.464Z,81.77
2022-11-28T00:43:51.429Z,82.19
2022-11-28T00:46:20.700Z,81.62
2022-11-28T00:48:48.163Z,81.83
2022-11-28T00:51:22.057Z,81.94
2022-11-28T00:53:51.377Z,82.15
2022-11-28T00:56:21.930Z,81.85
2022-11-28T00:58:49.727Z,82.40
2022-11-28T01:01:19.796Z,82.25
2022-11-28T01:03:48.101Z,81.97
2022-11-28T01:06:27.711Z,81.92
2022-11-28T01:08:55.744Z,82.30
2022-11-28T01:11:23.251Z,82.25
2022-11-28T01:13:50.748Z,82.27
2022-11-28T01:16:17.775Z,82.49
2022-11-28T01:18:44.886Z,82.47
2022-11-28T01:21:11.934Z,82.82
2022-11-28T01:23:39.149Z,82.83
2022-11-28T01:26:09.713Z,82.60
2022-11-28T01:28:36.760Z,82.45
2022-11-28T01:31:08.073Z,82.60
2022-11-28T01:33:35.713Z,82.63
2022-11-28T01:36:04.429Z,82.57
2022-11-28T01:38:31.703Z,82.69
2022-11-28T01:40:58.941Z,82.96
2022-11-28T01:43:26.070Z,82.99
2022-11-28T01:45:54.063Z,82.75
2022-11-28T01:48:39.305Z,82.54
2022-11-28T01:51:09.744Z,82.61
2022-11-28T01:53:45.625Z,82.83
2022-11-28T01:56:32.052Z,82.80
2022-11-28T01:59:07.072Z,83.14
2022-11-28T02:01:34.189Z,82.95
2022-11-28T02:04:03.122Z,83.00
2022-11-28T02:06:32.290Z,82.97
2022-11-28T02:08:59.214Z,83.01
2022-11-28T02:11:40.182Z,83.10
2022-11-28T02:14:42.630Z,82.66
2022-11-28T02:17:43.999Z,82.74
2022-11-28T02:20:40.948Z,82.68
2022-11-28T02:23:25.391Z,82.74
2022-11-28T02:26:30.019Z,82.91
2022-11-28T02:29:51.305Z,82.92
2022-11-28T02:32:47.107Z,82.91
2022-11-28T02:36:08.262Z,82.60
2022-11-28T02:39:23.389Z,82.80
2022-11-28T02:42:20.230Z,83.32
2022-11-28T02:45:03.829Z,83.21
2022-11-28T02:47:36.264Z,83.27
2022-11-28T02:50:09.357Z,83.11
2022-11-28T02:52:50.086Z,82.88
2022-11-28T02:55:17.872Z,82.91
2022-11-28T02:57:52.250Z,82.90
2022-11-28T03:00:33.936Z,83.04
2022-11-28T03:03:46.141Z,83.17
2022-11-28T03:06:59.900Z,83.04
2022-11-28T03:09:56.143Z,82.96
2022-11-28T03:12:42.142Z,82.83
2022-11-28T03:15:11.811Z,82.92
2022-11-28T03:18:06.290Z,83.11
2022-11-28T03:20:56.892Z,83.19
2022-11-28T03:23:57.641Z,83.22
2022-11-28T03:27:06.059Z,83.66
2022-11-28T03:29:48.978Z,83.09
2022-11-28T03:32:29.961Z,83.29
2022-11-28T03:35:06.191Z,83.40
2022-11-28T03:37:38.629Z,83.67
2022-11-28T03:40:12.235Z,83.16
2022-11-28T03:42:44.132Z,83.64
2022-11-28T03:45:16.652Z,83.68
2022-11-28T03:47:54.055Z,83.47
2022-11-28T03:50:33.592Z,83.52
2022-11-28T03:53:11.698Z,83.04
2022-11-28T03:56:21.997Z,83.55
2022-11-28T03:59:03.909Z,83.80
2022-11-28T04:02:00.622Z,83.70
2022-11-28T04:04:36.692Z,83.84
2022-11-28T04:07:33.247Z,83.80
2022-11-28T04:10:31.722Z,83.59
2022-11-28T04:13:10.815Z,83.37
2022-11-28T04:16:18.804Z,83.46
2022-11-28T04:19:21.937Z,83.30
2022-11-28T04:22:14.644Z,83.35
2022-11-28T04:25:12.274Z,83.37
2022-11-28T04:27:53.076Z,83.64
2022-11-28T04:30:20.164Z,83.91
2022-11-28T04:32:52.208Z,83.62
2022-11-28T04:35:46.379Z,83.58
2022-11-28T04:38:14.371Z,83.69
2022-11-28T04:40:55.701Z,83.99
2022-11-28T04:43:31.986Z,83.52
2022-11-28T04:46:07.202Z,83.47
2022-11-28T04:48:34.711Z,83.74
2022-11-28T04:51:20.031Z,83.54
2022-11-28T04:53:57.953Z,83.86
2022-11-28T04:56:47.101Z,83.63
2022-11-28T04:59:15.198Z,84.03
2022-11-28T05:01:46.037Z,84.06
2022-11-28T05:04:14.869Z,83.86
2022-11-28T05:06:41.783Z,83.99
2022-11-28T05:09:13.820Z,83.90
2022-11-28T05:11:40.833Z,83.74
2022-11-28T05:14:08.197Z,84.06
2022-11-28T05:16:35.233Z,84.13
2022-11-28T05:19:02.188Z,83.95
2022-11-28T05:21:29.165Z,83.87
2022-11-28T05:23:56.117Z,83.88
2022-11-28T05:26:23.773Z,83.82
2022-11-28T05:28:51.460Z,84.01
2022-11-28T05:31:21.407Z,84.09
2022-11-28T05:33:48.533Z,84.02
2022-11-28T05:36:17.056Z,83.95
2022-11-28T05:38:44.790Z,84.09
2022-11-28T05:41:23.698Z,84.08
2022-11-28T05:43:51.001Z,83.89
2022-11-28T05:46:19.281Z,83.74
2022-11-28T05:48:46.404Z,84.31
2022-11-28T05:51:13.522Z,83.95
2022-11-28T05:53:40.755Z,83.84
2022-11-28T05:56:10.150Z,83.98
2022-11-28T05:58:37.802Z,84.39
2022-11-28T06:01:17.499Z,84.21
2022-11-28T06:03:45.464Z,84.04
2022-11-28T06:06:15.519Z,84.13
2022-11-28T06:08:43.547Z,84.36
2022-11-28T06:11:12.102Z,84.11
2022-11-28T06:13:39.084Z,84.26
2022-11-28T06:16:11.826Z,83.99
2022-11-28T06:18:39.842Z,84.35
2022-11-28T06:21:09.688Z,84.28
2022-11-28T06:23:37.446Z,84.46
2022-11-28T06:26:12.733Z,84.01
2022-11-28T06:28:40.524Z,84.37
2022-11-28T06:31:20.381Z,84.07
2022-11-28T06:33:47.946Z,84.28
2022-11-28T06:36:17.154Z,84.35
2022-11-28T06:38:44.431Z,84.37
2022-11-28T06:41:16.382Z,84.67
2022-11-28T06:43:44.091Z,85.00
2022-11-28T06:46:18.819Z,84.67
2022-11-28T06:48:47.896Z,84.85
2022-11-28T06:51:15.383Z,84.51
2022-11-28T06:53:42.739Z,84.76
2022-11-28T06:56:16.418Z,84.86
2022-11-28T06:58:44.573Z,85.21
2022-11-28T07:01:20.939Z,84.62
2022-11-28T07:03:49.434Z,84.62
2022-11-28T07:06:19.733Z,85.03
2022-11-28T07:08:47.240Z,84.58
2022-11-28T07:11:20.998Z,84.85
2022-11-28T07:13:50.090Z,84.87
2022-11-28T07:16:30.368Z,84.47
2022-11-28T07:18:58.869Z,84.67
2022-11-28T07:21:27.660Z,84.61
2022-11-28T07:23:54.617Z,84.44
2022-11-28T07:26:22.402Z,84.56
2022-11-28T07:28:50.193Z,84.69
2022-11-28T07:31:21.034Z,84.83
2022-11-28T07:33:50.961Z,84.76
2022-11-28T07:36:24.558Z,84.36
2022-11-28T07:38:54.621Z,84.37
2022-11-28T07:41:26.548Z,84.73
2022-11-28T07:44:00.164Z,84.63
2022-11-28T07:46:29.788Z,84.68
2022-11-28T07:48:57.341Z,85.01
2022-11-28T07:51:31.886Z,84.95
2022-11-28T07:54:00.098Z,84.93
2022-11-28T07:56:56.720Z,85.16
2022-11-28T07:59:18.075Z,84.73
2022-11-28T08:01:45.113Z,84.73
2022-11-28T08:04:12.313Z,84.89
2022-11-28T08:06:43.286Z,85.03
2022-11-28T08:09:13.966Z,85.25
2022-11-28T08:11:41.655Z,85.33
2022-11-28T08:14:08.846Z,85.30
2022-11-28T08:16:36.781Z,85.03
2022-11-28T08:19:03.914Z,85.35
2022-11-28T08:21:33.274Z,85.46
2022-11-28T08:24:02.460Z,85.47
2022-11-28T08:26:31.438Z,85.56
2022-11-28T08:29:00.296Z,85.45
2022-11-28T08:31:31.760Z,85.50
2022-11-28T08:34:01.896Z,85.66
2022-11-28T08:36:29.528Z,85.70
2022-11-28T08:39:09.847Z,85.51
2022-11-28T08:41:44.146Z,85.71
2022-11-28T08:44:11.072Z,85.67
2022-11-28T08:46:38.010Z,85.24
2022-11-28T08:49:05.050Z,85.21
2022-11-28T08:51:32.281Z,85.28
2022-11-28T08:53:59.975Z,85.33
2022-11-28T08:56:28.169Z,85.43
2022-11-28T08:58:55.928Z,85.41
2022-11-28T09:01:25.859Z,85.42
2022-11-28T09:03:55.088Z,85.27
2022-11-28T09:06:23.539Z,85.09
2022-11-28T09:08:51.427Z,85.14
2022-11-28T09:11:21.267Z,85.62
2022-11-28T09:13:49.080Z,85.13
2022-11-28T09:16:16.529Z,85.44
2022-11-28T09:18:43.678Z,85.38
2022-11-28T09:21:14.093Z,85.24
2022-11-28T09:23:43.609Z,85.24
2022-11-28T09:26:13.821Z,84.97
2022-11-28T09:28:41.103Z,85.19
2022-11-28T09:31:08.956Z,85.32
2022-11-28T09:33:36.595Z,85.05
2022-11-28T09:36:12.944Z,84.94
2022-11-28T09:38:40.252Z,85.07
2022-11-28T09:41:28.110Z,84.87
2022-11-28T09:44:16.678Z,84.91
2022-11-28T09:46:44.675Z,85.07
2022-11-28T09:49:41.737Z,85.17
2022-11-28T09:52:51.837Z,85.42
2022-11-28T09:56:00.292Z,85.30
2022-11-28T09:58:51.016Z,85.16
2022-11-28T10:01:24.637Z,85.40
2022-11-28T10:04:21.767Z,85.69
2022-11-28T10:07:15.607Z,85.04
2022-11-28T10:10:19.494Z,85.11
2022-11-28T10:13:59.895Z,84.69
2022-11-28T10:16:29.621Z,84.83
2022-11-28T10:19:04.631Z,84.81
2022-11-28T10:21:42.274Z,84.87
2022-11-28T10:24:22.917Z,85.08
2022-11-28T10:26:57.752Z,84.74
2022-11-28T10:29:50.693Z,84.50
2022-11-28T10:32:31.091Z,84.25
2022-11-28T10:35:27.953Z,84.63
2022-11-28T10:37:55.580Z,84.42
2022-11-28T10:41:03.394Z,83.82
2022-11-28T10:43:54.670Z,84.07
2022-11-28T10:46:36.981Z,83.89
2022-11-28T10:49:31.629Z,84.23
2022-11-28T10:52:30.132Z,84.50
2022-11-28T10:55:36.965Z,84.60
2022-11-28T10:58:24.124Z,84.58
2022-11-28T11:00:56.004Z,84.56
2022-11-28T11:03:29.856Z,84.65
2022-11-28T11:05:57.212Z,84.64
2022-11-28T11:08:30.223Z,84.79
2022-11-28T11:11:11.788Z,84.87
2022-11-28T11:14:10.751Z,85.02
2022-11-28T11:16:53.773Z,84.95
2022-11-28T11:19:41.328Z,85.39
2022-11-28T11:22:20.255Z,85.24
2022-11-28T11:25:17.432Z,85.71
2022-11-28T11:28:01.682Z,85.91
2022-11-28T11:30:42.522Z,85.88
2022-11-28T11:33:17.338Z,86.04
2022-11-28T11:35:49.357Z,86.04
2022-11-28T11:38:22.294Z,85.87
2022-11-28T11:40:50.855Z,85.73
2022-11-28T11:43:36.232Z,86.04
2022-11-28T11:46:09.927Z,86.02
2022-11-28T11:48:41.972Z,85.81
2022-11-28T11:51:37.971Z,85.94
2022-11-28T11:54:26.552Z,86.08
2022-11-28T11:57:11.323Z,86.72
2022-11-28T11:59:49.507Z,86.51
2022-11-28T12:02:32.328Z,86.40
2022-11-28T12:05:09.730Z,86.81
2022-11-28T12:07:55.163Z,86.70
2022-11-28T12:10:27.346Z,86.79
2022-11-28T12:12:54.319Z,86.78
2022-11-28T12:15:39.669Z,86.68
2022-11-28T12:19:00.203Z,87.61
2022-11-28T12:21:44.959Z,87.63
2022-11-28T12:24:22.022Z,88.00
2022-11-28T12:27:10.203Z,87.34
2022-11-28T12:30:47.844Z,87.70
2022-11-28T12:33:52.271Z,87.57
2022-11-28T12:36:36.499Z,87.41
2022-11-28T12:39:38.687Z,88.05
2022-11-28T12:42:20.396Z,88.43
2022-11-28T12:45:20.648Z,87.97
2022-11-28T12:48:16.314Z,87.99
2022-11-28T12:50:49.949Z,88.01
2022-11-28T12:53:55.494Z,87.89
2022-11-28T12:56:58.242Z,88.17
2022-11-28T13:00:09.173Z,87.40
2022-11-28T13:02:50.341Z,87.46
2022-11-28T13:06:17.861Z,87.84
2022-11-28T13:08:48.946Z,88.08
2022-11-28T13:11:40.510Z,87.90
2022-11-28T13:14:16.130Z,87.62
2022-11-28T13:16:51.343Z,87.79
2022-11-28T13:19:49.157Z,87.72
2022-11-28T13:22:24.571Z,87.61
2022-11-28T13:25:25.381Z,87.97
2022-11-28T13:28:29.484Z,87.68
2022-11-28T13:31:22.547Z,87.99
2022-11-28T13:33:57.587Z,87.32
2022-11-28T13:39:52.103Z,87.61
2022-11-28T13:45:34.603Z,87.48
2022-11-28T13:48:57.588Z,88.09
2022-11-28T13:51:31.672Z,87.68
2022-11-28T13:54:20.410Z,87.74
2022-11-28T13:57:09.598Z,87.81
2022-11-28T13:59:38.117Z,88.02
2022-11-28T14:02:49.601Z,88.01
2022-11-28T14:05:41.457Z,88.16
2022-11-28T14:08:25.531Z,88.07
2022-11-28T14:11:07.596Z,88.08
2022-11-28T14:14:26.628Z,87.98
2022-11-28T14:17:35.467Z,88.31
2022-11-28T14:20:33.335Z,88.04
2022-11-28T14:23:43.450Z,88.53
2022-11-28T14:26:34.188Z,87.91
2022-11-28T14:29:03.350Z,88.22
2022-11-28T14:31:38.131Z,88.81
2022-11-28T14:34:27.404Z,88.50
2022-11-28T14:37:20.459Z,88.75
2022-11-28T14:39:49.438Z,88.51
2022-11-28T14:42:36.918Z,88.35
2022-11-28T14:45:45.364Z,88.50
2022-11-28T14:48:19.779Z,88.56
2022-11-28T14:51:00.609Z,88.39
2022-11-28T14:53:38.330Z,88.59
2022-11-28T14:56:28.232Z,88.56
2022-11-28T14:59:03.358Z,88.68
2022-11-28T15:02:09.647Z,88.30
2022-11-28T15:05:04.875Z,88.70
2022-11-28T15:07:50.773Z,88.33
2022-11-28T15:10:49.141Z,88.53
2022-11-28T15:13:35.545Z,88.19
2022-11-28T15:16:10.553Z,88.36
2022-11-28T15:18:44.330Z,88.90
2022-11-28T15:21:15.662Z,88.85
2022-11-28T15:23:43.584Z,88.82
2022-11-28T15:26:22.653Z,88.29
2022-11-28T15:29:07.246Z,88.72
2022-11-28T15:31:34.346Z,88.63
2022-11-28T15:34:01.935Z,88.67
2022-11-28T15:36:30.091Z,88.38
2022-11-28T15:38:57.815Z,88.68
2022-11-28T15:41:27.378Z,88.54
2022-11-28T15:43:56.166Z,88.20
2022-11-28T15:46:34.137Z,88.47
2022-11-28T15:49:01.671Z,88.66
2022-11-28T15:51:35.527Z,88.60
2022-11-28T15:54:11.923Z,88.87
2022-11-28T15:56:59.811Z,88.29
2022-11-28T15:59:28.290Z,88.73
2022-11-28T16:02:12.961Z,88.53
2022-11-28T16:04:40.226Z,88.54
2022-11-28T16:07:12.124Z,88.49
2022-11-28T16:09:58.205Z,88.32
2022-11-28T16:12:26.574Z,88.22
2022-11-28T16:14:58.710Z,88.07
2022-11-28T16:17:31.509Z,88.15
2022-11-28T16:19:59.692Z,88.08
2022-11-28T16:22:36.870Z,88.33
2022-11-28T16:25:25.519Z,88.05
2022-11-28T16:27:53.413Z,88.18
2022-11-28T16:30:23.365Z,88.74
2022-11-28T16:32:52.287Z,89.01
2022-11-28T16:35:38.858Z,88.38
2022-11-28T16:38:21.248Z,88.39
2022-11-28T16:40:48.909Z,88.43
2022-11-28T16:43:39.179Z,88.14
2022-11-28T16:46:17.473Z,88.69
2022-11-28T16:48:57.428Z,88.57
2022-11-28T16:51:35.024Z,88.63
2022-11-28T16:54:31.943Z,88.72
2022-11-28T16:57:16.711Z,89.09
2022-11-28T16:59:45.161Z,89.23
2022-11-28T17:02:16.806Z,89.27
2022-11-28T17:04:45.512Z,89.30
2022-11-28T17:07:19.091Z,89.21
2022-11-28T17:09:47.866Z,89.27
2022-11-28T17:12:27.511Z,89.31
2022-11-28T17:14:56.165Z,89.61
2022-11-28T17:17:24.225Z,89.63
2022-11-28T17:19:51.516Z,89.34
2022-11-28T17:22:25.527Z,89.76
2022-11-28T17:25:00.036Z,90.08
2022-11-28T17:27:27.441Z,89.78
2022-11-28T17:29:54.708Z,90.20
2022-11-28T17:32:21.940Z,89.97
2022-11-28T17:34:49.026Z,89.53
2022-11-28T17:37:16.631Z,90.11
2022-11-28T17:40:03.825Z,89.77
2022-11-28T17:42:31.622Z,90.19
2022-11-28T17:44:58.606Z,89.84
2022-11-28T17:47:26.392Z,90.41
2022-11-28T17:49:53.552Z,90.18
2022-11-28T17:52:21.074Z,90.44
2022-11-28T17:54:48.329Z,90.62
2022-11-28T17:57:20.949Z,90.60
2022-11-28T17:59:48.065Z,90.57
2022-11-28T18:02:15.662Z,90.89
2022-11-28T18:04:42.717Z,91.00
2022-11-28T18:07:09.762Z,90.79
2022-11-28T18:09:36.885Z,90.70
2022-11-28T18:12:04.661Z,91.06
2022-11-28T18:14:36.684Z,90.84
2022-11-28T18:17:07.019Z,91.11
2022-11-28T18:19:34.170Z,90.98
2022-11-28T18:22:01.638Z,90.84
2022-11-28T18:24:28.861Z,91.27
2022-11-28T18:26:55.815Z,91.05
2022-11-28T18:29:22.796Z,90.93
2022-11-28T18:31:49.761Z,91.04
2022-11-28T18:34:16.926Z,91.31
2022-11-28T18:36:44.970Z,91.94
2022-11-28T18:39:14.996Z,91.44
2022-11-28T18:41:42.666Z,91.26
2022-11-28T18:44:11.357Z,91.22
2022-11-28T18:46:39.709Z,90.84
2022-11-28T18:49:07.945Z,91.71
2022-11-28T18:51:35.830Z,91.24
2022-11-28T18:54:05.808Z,91.81
2022-11-28T18:56:35.428Z,91.56
2022-11-28T18:59:02.836Z,91.31
2022-11-28T19:01:33.354Z,91.37
2022-11-28T19:04:11.119Z,90.91
2022-11-28T19:06:40.496Z,91.28
2022-11-28T19:09:11.759Z,91.62
2022-11-28T19:11:40.935Z,91.83
2022-11-28T19:14:12.731Z,92.12
2022-11-28T19:16:39.813Z,93.37
2022-11-28T19:19:06.951Z,92.77
2022-11-28T19:21:36.553Z,92.70
2022-11-28T19:24:04.676Z,92.90
2022-11-28T19:26:33.954Z,93.70
2022-11-28T19:29:02.021Z,93.44
2022-11-28T19:31:35.328Z,92.81
2022-11-28T19:34:06.030Z,92.80
2022-11-28T19:36:40.895Z,92.67
2022-11-28T19:39:19.610Z,92.79
2022-11-28T19:41:47.312Z,92.63
2022-11-28T19:44:15.341Z,93.37
2022-11-28T19:46:43.516Z,93.00
2022-11-28T19:49:18.966Z,93.08
2022-11-28T19:51:47.995Z,93.18
2022-11-28T19:54:17.036Z,93.05
2022-11-28T19:56:44.392Z,93.00
2022-11-28T19:59:11.978Z,93.03
2022-11-28T20:01:39.818Z,92.93
2022-11-28T20:04:08.706Z,92.67
2022-11-28T20:06:38.356Z,92.72
2022-11-28T20:09:10.030Z,92.95
2022-11-28T20:11:42.896Z,93.67
2022-11-28T20:14:18.804Z,92.71
2022-11-28T20:16:46.656Z,93.13
2022-11-28T20:19:16.062Z,93.51
2022-11-28T20:21:45.954Z,92.71
2022-11-28T20:24:14.980Z,93.30
2022-11-28T20:26:43.724Z,92.97
2022-11-28T20:29:15.952Z,93.43
2022-11-28T20:31:45.827Z,93.79
2022-11-28T20:34:17.606Z,93.47
2022-11-28T20:36:50.005Z,93.70
2022-11-28T20:39:17.085Z,93.20
2022-11-28T20:41:44.048Z,93.60
2022-11-28T20:44:11.175Z,93.75
2022-11-28T20:46:39.751Z,93.66
2022-11-28T20:49:07.544Z,94.20
2022-11-28T20:51:35.986Z,93.96
2022-11-28T20:54:05.541Z,94.00
2022-11-28T20:57:05.102Z,93.99
2022-11-28T20:59:26.493Z,94.51
2022-11-28T21:01:53.623Z,93.75
2022-11-28T21:04:20.922Z,94.23
2022-11-28T21:06:49.108Z,94.51
2022-11-28T21:09:18.397Z,94.77
2022-11-28T21:12:02.349Z,94.20
2022-11-28T21:14:29.838Z,94.43
2022-11-28T21:16:58.577Z,94.19
2022-11-28T21:19:25.816Z,94.31
2022-11-28T21:21:53.282Z,93.66
2022-11-28T21:24:20.637Z,94.05
2022-11-28T21:31:49.284Z,93.91
2022-11-28T21:34:16.786Z,93.65
2022-11-28T21:36:44.401Z,93.84
2022-11-28T21:39:20.349Z,94.71
2022-11-28T21:41:47.957Z,94.60
2022-11-28T21:44:15.034Z,94.42
2022-11-28T21:46:42.918Z,94.39
2022-11-28T21:49:10.421Z,94.48
2022-11-28T21:51:40.974Z,94.76
2022-11-28T21:54:11.287Z,93.81
2022-11-28T21:56:38.882Z,93.99
2022-11-28T21:59:10.579Z,94.41
2022-11-28T22:01:39.402Z,94.53
2022-11-28T22:04:06.609Z,94.27
2022-11-28T22:06:33.830Z,94.51
2022-11-28T22:09:08.641Z,95.17
2022-11-28T22:11:36.176Z,94.53
2022-11-28T22:14:03.818Z,93.89
2022-11-28T22:16:31.476Z,95.05
2022-11-28T22:19:00.183Z,94.92
2022-11-28T22:24:14.691Z,94.19
2022-11-28T22:26:41.701Z,94.05
2022-11-28T22:29:08.871Z,94.00
2022-11-28T22:31:36.148Z,94.01
2022-11-28T22:34:03.539Z,94.15
2022-11-28T22:36:31.958Z,93.82
2022-11-28T22:38:59.369Z,93.77
2022-11-28T22:41:29.396Z,93.80
2022-11-28T22:44:01.571Z,94.05
2022-11-28T22:46:31.576Z,93.85
2022-11-28T22:49:03.698Z,94.04
2022-11-28T22:51:31.711Z,94.50
2022-11-28T22:54:01.682Z,94.13
2022-11-28T22:56:32.071Z,94.39
2022-11-28T22:59:00.259Z,94.00
2022-11-28T23:01:31.020Z,93.83
2022-11-28T23:03:58.756Z,93.87
2022-11-28T23:06:29.140Z,93.76
2022-11-28T23:08:58.653Z,93.95
2022-11-28T23:11:32.828Z,93.17
2022-11-28T23:14:01.528Z,93.02
2022-11-28T23:16:38.489Z,93.10
2022-11-28T23:19:15.684Z,93.39
2022-11-28T23:21:45.777Z,93.40
2022-11-28T23:24:20.420Z,93.02
2022-11-28T23:26:50.263Z,92.88
2022-11-28T23:29:18.512Z,92.71
2022-11-28T23:31:46.992Z,92.73
2022-11-28T23:34:14.919Z,92.88
2022-11-28T23:36:46.472Z,92.82
2022-11-28T23:39:20.197Z,92.46
2022-11-28T23:41:48.004Z,92.88
2022-11-28T23:44:19.580Z,92.72
2022-11-28T23:46:48.259Z,93.02
2022-11-28T23:49:15.689Z,92.57
2022-11-28T23:51:43.014Z,92.91
2022-11-28T23:54:11.564Z,92.98
2022-11-28T23:56:40.478Z,92.85
2022-11-28T23:59:12.171Z,92.66
